Time;durP1;ratioP1;P1;durP2;ratioP2;P2;SDS_P1;SDS_P2;PMS_P1;PMS_P2;Temp;Humidity;BMP_temperature;BMP_pressure;BME280_temperature;BME280_humidity;BME280_pressure;Samples;Min_cycle;Max_cycle;Signal;HPM_P1;HPM_P2
2022/09/18 00:00:47;;;;;;;7.65;1.88;;;10.10;99.90;;;;;;4947441;28;20121;-75
2022/09/18 00:03:14;;;;;;;12.63;2.38;;;10.10;99.90;;;;;;4923114;29;20179;-75
2022/09/18 00:05:41;;;;;;;10.20;2.65;;;10.10;99.90;;;;;;4938937;29;20043;-74
2022/09/18 00:08:06;;;;;;;10.88;2.30;;;10.10;99.90;;;;;;4941373;28;20524;-75
2022/09/18 00:10:38;;;;;;;10.20;2.00;;;10.10;99.90;;;;;;4958285;28;20074;-75
2022/09/18 00:13:03;;;;;;;12.65;2.20;;;10.10;99.90;;;;;;4958224;28;20047;-75
2022/09/18 00:15:29;;;;;;;10.38;2.42;;;10.10;99.90;;;;;;4952660;29;20039;-74
2022/09/18 00:17:54;;;;;;;13.18;2.40;;;10.10;99.90;;;;;;4937845;28;20069;-74
2022/09/18 00:20:20;;;;;;;13.50;2.40;;;10.10;99.90;;;;;;4950437;28;20042;-75
2022/09/18 00:22:46;;;;;;;11.27;2.40;;;10.10;99.90;;;;;;4923376;29;20433;-74
2022/09/18 00:25:11;;;;;;;9.35;2.17;;;10.10;99.90;;;;;;4937468;29;20043;-75
2022/09/18 00:27:37;;;;;;;12.05;1.95;;;10.20;99.90;;;;;;4938282;28;20043;-74
2022/09/18 00:30:03;;;;;;;10.25;2.17;;;10.20;99.90;;;;;;4957729;28;20123;-74
2022/09/18 00:32:29;;;;;;;15.25;2.47;;;10.20;99.90;;;;;;4957728;28;20066;-75
2022/09/18 00:34:54;;;;;;;6.68;1.80;;;10.20;99.90;;;;;;4956394;28;20047;-75
2022/09/18 00:37:20;;;;;;;11.05;2.10;;;10.20;99.90;;;;;;4954844;28;20519;-75
2022/09/18 00:39:45;;;;;;;10.90;1.90;;;10.20;99.90;;;;;;4936916;28;20053;-75
2022/09/18 00:42:12;;;;;;;9.20;1.90;;;10.20;99.90;;;;;;4937624;29;20486;-75
2022/09/18 00:44:41;;;;;;;10.43;2.22;;;10.20;99.90;;;;;;4938009;29;20039;-75
2022/09/18 00:47:09;;;;;;;7.45;1.50;;;10.20;99.90;;;;;;4938186;29;20122;-75
2022/09/18 00:50:18;;;;;;;11.45;1.50;;;10.20;99.90;;;;;;4954173;28;20410;-75
2022/09/18 00:53:01;;;;;;;8.48;1.40;;;10.30;99.90;;;;;;4899155;29;20087;-75
2022/09/18 00:55:31;;;;;;;10.65;1.92;;;10.30;99.90;;;;;;4876975;29;20075;-75
2022/09/18 00:57:59;;;;;;;10.30;2.08;;;10.30;99.90;;;;;;4923758;28;20050;-75
2022/09/18 01:00:25;;;;;;;10.30;1.90;;;10.30;99.90;;;;;;4951453;28;20441;-75
2022/09/18 01:02:51;;;;;;;7.43;1.50;;;10.30;99.90;;;;;;4941174;28;20055;-74
2022/09/18 01:05:46;;;;;;;8.38;1.40;;;10.30;99.90;;;;;;4957228;28;20074;-75
2022/09/18 01:08:49;;;;;;;9.50;2.03;;;10.30;99.90;;;;;;4957011;28;20050;-75
2022/09/18 01:11:20;;;;;;;10.37;1.87;;;10.30;99.90;;;;;;4940016;29;20406;-75
2022/09/18 01:14:07;;;;;;;10.40;2.05;;;10.30;99.90;;;;;;4937729;29;20093;-75
2022/09/18 01:16:54;;;;;;;8.82;2.13;;;10.40;99.90;;;;;;4937804;29;20061;-75
2022/09/18 01:19:51;;;;;;;11.73;1.92;;;10.40;99.90;;;;;;4936599;29;20164;-75
2022/09/18 01:22:47;;;;;;;9.07;1.80;;;10.40;99.90;;;;;;4930215;28;20498;-75
2022/09/18 01:25:20;;;;;;;9.80;1.98;;;10.40;99.90;;;;;;4934562;28;20405;-75
2022/09/18 01:28:04;;;;;;;;;;;10.40;99.90;;;;;;4956869;28;20046;-75
2022/09/18 01:30:31;;;;;;;9.15;1.85;;;10.40;99.90;;;;;;4950868;28;19918;-75
2022/09/18 01:33:04;;;;;;;9.40;1.70;;;10.50;99.90;;;;;;4956512;28;20095;-75
2022/09/18 01:35:52;;;;;;;9.05;1.60;;;10.50;99.90;;;;;;4943057;29;20074;-74
2022/09/18 01:38:18;;;;;;;9.23;2.05;;;10.50;99.90;;;;;;4924109;29;20050;-75
2022/09/18 01:40:48;;;;;;;8.05;1.30;;;10.50;99.90;;;;;;4937021;28;20418;-75
2022/09/18 01:43:17;;;;;;;10.88;1.83;;;10.50;99.90;;;;;;4956351;28;20049;-75
2022/09/18 01:45:49;;;;;;;8.13;2.05;;;10.50;99.90;;;;;;4955920;28;20395;-75
2022/09/18 01:48:35;;;;;;;6.40;1.15;;;10.50;99.90;;;;;;4938420;29;20047;-75
2022/09/18 01:51:25;;;;;;;9.07;1.45;;;10.60;99.90;;;;;;4935999;29;20040;-75
2022/09/18 01:53:55;;;;;;;6.25;1.35;;;10.60;99.90;;;;;;4931434;28;20047;-75
2022/09/18 01:56:25;;;;;;;7.80;1.30;;;10.60;99.90;;;;;;4956269;28;20540;-75
2022/09/18 01:58:55;;;;;;;8.10;1.80;;;10.60;99.90;;;;;;4956243;28;20042;-75
2022/09/18 02:01:24;;;;;;;8.25;1.83;;;10.60;99.90;;;;;;4950540;28;20071;-75
2022/09/18 02:03:57;;;;;;;9.40;1.92;;;10.60;99.90;;;;;;4928663;29;20050;-75
2022/09/18 02:06:31;;;;;;;6.68;1.30;;;10.60;99.90;;;;;;4933613;29;20051;-75
2022/09/18 02:08:59;;;;;;;5.57;1.05;;;10.60;99.90;;;;;;4920952;29;20186;-75
2022/09/18 02:11:24;;;;;;;5.28;1.10;;;10.60;99.90;;;;;;4936918;29;20067;-75
2022/09/18 02:14:04;;;;;;;6.93;1.20;;;10.60;99.90;;;;;;4936785;29;20107;-75
2022/09/18 02:16:43;;;;;;;6.63;1.00;;;10.50;99.90;;;;;;4935402;29;20445;-75
2022/09/18 02:19:26;;;;;;;5.88;1.25;;;10.50;99.90;;;;;;4946693;28;20041;-75
2022/09/18 02:21:54;;;;;;;4.78;1.20;;;10.50;99.90;;;;;;4954563;28;20057;-75
2022/09/18 02:24:25;;;;;;;6.47;1.30;;;10.50;99.90;;;;;;4939950;28;20061;-75
2022/09/18 02:26:53;;;;;;;5.60;1.30;;;10.50;99.90;;;;;;4928224;28;20051;-75
2022/09/18 02:29:21;;;;;;;6.78;1.00;;;10.40;99.90;;;;;;4948646;28;20045;-75
2022/09/18 02:31:48;;;;;;;6.10;2.28;;;10.40;99.90;;;;;;4937996;29;20556;-75
2022/09/18 02:34:15;;;;;;;5.63;1.10;;;10.40;99.90;;;;;;4936584;29;20047;-75
2022/09/18 02:36:53;;;;;;;4.20;1.23;;;10.40;99.90;;;;;;4935847;29;20039;-75
2022/09/18 02:39:48;;;;;;;3.95;1.00;;;10.40;99.90;;;;;;4933671;28;20039;-75
2022/09/18 02:42:25;;;;;;;6.00;1.13;;;10.40;99.90;;;;;;4932200;29;20047;-75
2022/09/18 02:45:13;;;;;;;4.07;1.05;;;10.40;99.90;;;;;;4936169;29;20046;-75
2022/09/18 02:47:55;;;;;;;5.55;1.00;;;10.40;99.90;;;;;;4920392;28;20050;-75
2022/09/18 02:50:29;;;;;;;5.60;1.23;;;10.40;99.90;;;;;;4955781;28;20134;-75
2022/09/18 02:53:28;;;;;;;4.00;0.88;;;10.30;99.90;;;;;;4947851;29;20062;-75
2022/09/18 02:56:01;;;;;;;6.00;1.10;;;10.30;99.90;;;;;;4928718;29;20059;-75
2022/09/18 02:58:41;;;;;;;3.80;0.93;;;10.30;99.90;;;;;;4928022;28;20286;-75
2022/09/18 03:01:09;;;;;;;4.75;1.33;;;10.30;99.90;;;;;;4930709;28;20382;-75
2022/09/18 03:03:37;;;;;;;7.45;1.13;;;10.30;99.90;;;;;;4959316;28;20104;-74
2022/09/18 03:06:04;;;;;;;5.50;1.50;;;10.30;99.90;;;;;;4959274;28;20125;-74
2022/09/18 03:08:30;;;;;;;6.90;1.38;;;10.30;99.90;;;;;;4943154;28;20130;-75
2022/09/18 03:10:55;;;;;;;7.57;1.17;;;10.30;99.90;;;;;;4959080;28;20074;-75
2022/09/18 03:13:21;;;;;;;5.38;1.08;;;10.30;99.90;;;;;;4943085;28;20039;-75
2022/09/18 03:15:47;;;;;;;7.18;1.33;;;10.30;99.90;;;;;;4929732;28;20043;-75
2022/09/18 03:18:13;;;;;;;4.82;1.23;;;10.40;99.90;;;;;;4934554;29;20092;-75
2022/09/18 03:20:41;;;;;;;8.05;1.40;;;10.40;99.90;;;;;;4954135;28;20042;-75
2022/09/18 03:23:07;;;;;;;7.60;1.50;;;10.40;99.90;;;;;;4943426;29;20035;-74
2022/09/18 03:25:34;;;;;;;7.18;1.20;;;10.40;99.90;;;;;;4922647;29;20046;-75
2022/09/18 03:27:59;;;;;;;4.22;1.08;;;10.40;99.90;;;;;;4939554;29;20062;-74
2022/09/18 03:30:25;;;;;;;7.10;1.20;;;10.40;99.90;;;;;;4939675;29;20494;-74
2022/09/18 03:32:52;;;;;;;6.38;1.30;;;10.40;99.90;;;;;;4940754;28;20045;-75
2022/09/18 03:35:18;;;;;;;6.57;1.10;;;10.40;99.90;;;;;;4958625;28;20043;-75
2022/09/18 03:37:43;;;;;;;7.53;1.40;;;10.40;99.90;;;;;;4958527;28;20043;-75
2022/09/18 03:40:09;;;;;;;6.93;1.20;;;10.40;99.90;;;;;;4937677;28;20069;-75
2022/09/18 03:42:35;;;;;;;9.65;1.38;;;10.40;99.90;;;;;;4958932;28;20096;-75
2022/09/18 03:45:00;;;;;;;8.02;1.45;;;10.40;99.90;;;;;;4950844;28;20035;-75
2022/09/18 03:47:26;;;;;;;7.97;1.90;;;10.40;99.90;;;;;;4928263;29;20044;-75
2022/09/18 03:49:52;;;;;;;9.48;1.73;;;10.40;99.90;;;;;;4939269;29;20046;-75
2022/09/18 03:52:18;;;;;;;8.13;1.70;;;10.40;99.90;;;;;;4939355;29;20474;-75
2022/09/18 03:54:44;;;;;;;5.90;1.35;;;10.40;99.90;;;;;;4939296;29;20578;-75
2022/09/18 03:57:10;;;;;;;9.82;1.42;;;10.40;99.90;;;;;;4939115;29;20145;-75
2022/09/18 03:59:35;;;;;;;9.60;1.30;;;10.40;99.90;;;;;;4937792;29;20077;-75
2022/09/18 04:02:01;;;;;;;11.00;1.73;;;10.40;99.90;;;;;;4922740;29;20418;-75
2022/09/18 04:04:28;;;;;;;4.53;1.30;;;10.40;99.90;;;;;;4939077;29;20126;-75
2022/09/18 04:06:53;;;;;;;8.70;1.50;;;10.40;99.90;;;;;;4938890;29;20040;-75
2022/09/18 04:09:19;;;;;;;10.68;1.40;;;10.40;99.90;;;;;;4938990;29;20059;-75
2022/09/18 04:11:44;;;;;;;7.97;1.35;;;10.40;99.90;;;;;;4939818;28;20093;-75
2022/09/18 04:14:10;;;;;;;5.85;1.40;;;10.40;99.90;;;;;;4937424;28;20412;-75
2022/09/18 04:16:36;;;;;;;7.13;1.30;;;10.40;99.90;;;;;;4941599;29;20094;-75
2022/09/18 04:19:02;;;;;;;5.63;1.38;;;10.40;99.90;;;;;;4938828;29;20047;-75
2022/09/18 04:21:27;;;;;;;7.80;1.30;;;10.40;99.90;;;;;;4939072;29;20043;-75
2022/09/18 04:23:55;;;;;;;5.95;1.40;;;10.40;99.90;;;;;;4938778;29;20046;-75
2022/09/18 04:26:20;;;;;;;6.47;1.45;;;10.40;99.90;;;;;;4935186;29;20081;-75
2022/09/18 04:28:46;;;;;;;6.88;1.50;;;10.40;99.90;;;;;;4949541;28;20070;-75
2022/09/18 04:31:11;;;;;;;8.88;1.40;;;10.50;99.90;;;;;;4944573;29;20047;-75
2022/09/18 04:33:37;;;;;;;6.93;1.27;;;10.50;99.90;;;;;;4938649;29;20042;-75
2022/09/18 04:36:03;;;;;;;11.55;1.67;;;10.50;99.90;;;;;;4938887;29;20051;-75
2022/09/18 04:38:28;;;;;;;7.78;1.33;;;10.50;99.90;;;;;;4926016;29;20040;-75
2022/09/18 04:40:57;;;;;;;6.60;1.30;;;10.50;99.90;;;;;;4947330;28;20166;-75
2022/09/18 04:43:24;;;;;;;9.00;1.42;;;10.50;99.90;;;;;;4942530;28;20122;-75
2022/09/18 04:45:50;;;;;;;7.50;1.27;;;10.50;99.90;;;;;;4947147;29;20039;-75
2022/09/18 04:48:17;;;;;;;5.35;1.00;;;10.50;99.90;;;;;;4922379;29;20927;-75
2022/09/18 04:50:44;;;;;;;3.75;1.25;;;10.50;99.90;;;;;;4922790;29;20046;-75
2022/09/18 04:53:10;;;;;;;6.00;1.10;;;10.50;99.90;;;;;;4928443;29;20589;-75
2022/09/18 04:55:36;;;;;;;4.43;1.20;;;10.50;99.90;;;;;;4938267;29;20043;-75
2022/09/18 04:58:02;;;;;;;4.80;1.00;;;10.40;99.90;;;;;;4948683;28;20097;-75
2022/09/18 05:00:27;;;;;;;4.30;1.27;;;10.40;99.90;;;;;;4957294;28;20481;-75
2022/09/18 05:02:54;;;;;;;6.82;1.83;;;10.40;99.90;;;;;;4957273;28;20584;-75
2022/09/18 05:05:19;;;;;;;5.53;1.05;;;10.40;99.90;;;;;;4934289;29;20070;-75
2022/09/18 05:07:45;;;;;;;7.93;1.27;;;10.40;99.90;;;;;;4931882;29;20380;-75
2022/09/18 05:10:11;;;;;;;6.70;1.15;;;10.40;99.90;;;;;;4934436;28;20085;-75
2022/09/18 05:12:40;;;;;;;5.10;1.13;;;10.50;99.90;;;;;;4953841;28;20042;-75
2022/09/18 05:15:07;;;;;;;6.47;1.20;;;10.40;99.90;;;;;;4941096;28;20054;-75
2022/09/18 05:17:32;;;;;;;7.18;1.23;;;10.40;99.90;;;;;;4948030;28;20126;-75
2022/09/18 05:19:58;;;;;;;7.90;1.55;;;10.40;99.90;;;;;;4948900;28;20106;-75
2022/09/18 05:22:24;;;;;;;9.82;1.48;;;10.40;99.90;;;;;;4941339;28;20043;-75
2022/09/18 05:24:49;;;;;;;11.30;1.30;;;10.40;99.90;;;;;;4939098;28;20128;-75
2022/09/18 05:27:15;;;;;;;7.90;1.50;;;10.40;99.90;;;;;;4944618;28;20036;-75
2022/09/18 05:29:41;;;;;;;7.10;1.27;;;10.40;99.90;;;;;;4937172;28;20497;-75
2022/09/18 05:32:07;;;;;;;8.02;2.25;;;10.40;99.90;;;;;;4940609;28;20038;-75
2022/09/18 05:34:32;;;;;;;8.90;1.58;;;10.40;99.90;;;;;;4937387;28;20457;-75
2022/09/18 05:36:58;;;;;;;6.07;1.48;;;10.40;99.90;;;;;;4956593;28;20042;-75
2022/09/18 05:39:23;;;;;;;9.05;1.60;;;10.40;99.90;;;;;;4926566;28;20050;-75
2022/09/18 05:41:52;;;;;;;7.03;1.50;;;10.40;99.90;;;;;;4948477;28;20043;-75
2022/09/18 05:44:18;;;;;;;6.20;1.52;;;10.40;99.90;;;;;;4956337;28;20046;-75
2022/09/18 05:46:47;;;;;;;7.32;1.45;;;10.40;99.90;;;;;;4954584;28;20497;-75
2022/09/18 05:49:13;;;;;;;7.78;1.30;;;10.40;99.90;;;;;;4956107;28;20039;-75
2022/09/18 05:51:39;;;;;;;7.10;1.75;;;10.40;99.90;;;;;;4955550;28;20626;-75
2022/09/18 05:54:05;;;;;;;9.18;1.60;;;10.40;99.90;;;;;;4906599;29;20105;-75
2022/09/18 05:56:30;;;;;;;8.30;1.95;;;10.40;99.90;;;;;;4937157;29;20071;-75
2022/09/18 05:58:56;;;;;;;6.68;1.33;;;10.40;99.90;;;;;;4919786;29;20117;-75
2022/09/18 06:01:22;;;;;;;11.60;1.55;;;10.40;99.90;;;;;;4939346;28;20041;-75
2022/09/18 06:03:49;;;;;;;11.20;1.85;;;10.40;99.90;;;;;;4948094;28;20115;-77
2022/09/18 06:06:14;;;;;;;8.70;1.35;;;10.40;99.90;;;;;;4939689;29;20054;-75
2022/09/18 06:08:40;;;;;;;10.75;2.00;;;10.40;99.90;;;;;;4927212;28;20457;-76
2022/09/18 06:11:05;;;;;;;9.43;1.70;;;10.40;99.90;;;;;;4909019;29;20035;-76
2022/09/18 06:13:31;;;;;;;8.00;1.88;;;10.50;99.90;;;;;;4943023;28;20553;-76
2022/09/18 06:15:57;;;;;;;15.63;2.30;;;10.50;99.90;;;;;;4953034;28;20445;-76
2022/09/18 06:18:23;;;;;;;7.80;2.00;;;10.50;99.90;;;;;;4949688;29;20047;-76
2022/09/18 06:20:54;;;;;;;10.70;1.77;;;10.50;99.90;;;;;;4946857;28;20042;-75
2022/09/18 06:23:22;;;;;;;11.48;2.13;;;10.60;99.90;;;;;;4924828;29;20546;-77
2022/09/18 06:25:48;;;;;;;7.05;1.70;;;10.60;99.90;;;;;;4921577;28;20054;-77
2022/09/18 06:28:13;;;;;;;10.43;1.90;;;10.50;99.90;;;;;;4951014;28;20531;-78
2022/09/18 06:30:39;;;;;;;9.30;1.75;;;10.60;99.90;;;;;;4919563;28;20034;-77
2022/09/18 06:33:06;;;;;;;8.20;1.95;;;10.60;99.90;;;;;;4945592;28;20031;-77
2022/09/18 06:35:33;;;;;;;7.20;1.65;;;10.60;99.90;;;;;;4939840;28;20497;-78
2022/09/18 06:38:02;;;;;;;8.13;1.75;;;10.60;99.90;;;;;;4939578;28;20125;-77
2022/09/18 06:40:30;;;;;;;8.73;1.55;;;10.60;99.90;;;;;;4936600;28;20448;-77
2022/09/18 06:42:56;;;;;;;7.72;1.50;;;10.70;99.90;;;;;;4942822;28;20042;-77
2022/09/18 06:45:23;;;;;;;10.32;1.70;;;10.70;99.90;;;;;;4937255;29;20482;-76
2022/09/18 06:47:53;;;;;;;6.68;1.95;;;10.70;99.90;;;;;;4913199;29;20046;-75
2022/09/18 06:50:19;;;;;;;9.30;1.80;;;10.70;99.90;;;;;;4950352;28;20078;-75
2022/09/18 06:52:45;;;;;;;6.32;1.88;;;10.70;99.90;;;;;;4948088;29;20035;-75
2022/09/18 06:55:10;;;;;;;8.45;1.77;;;10.80;99.90;;;;;;4939495;28;20449;-75
2022/09/18 06:57:36;;;;;;;11.00;2.22;;;10.80;99.90;;;;;;4945253;28;20042;-75
2022/09/18 07:00:02;;;;;;;8.60;1.83;;;10.80;99.90;;;;;;4937807;29;20043;-75
2022/09/18 07:02:28;;;;;;;11.88;2.13;;;10.80;99.90;;;;;;4935317;29;20043;-75
2022/09/18 07:04:53;;;;;;;11.85;2.03;;;10.90;99.90;;;;;;4933574;29;20379;-75
2022/09/18 07:07:19;;;;;;;9.48;2.75;;;10.90;99.90;;;;;;4936771;29;20040;-75
2022/09/18 07:09:44;;;;;;;8.57;2.88;;;11.00;99.90;;;;;;4931336;29;20097;-75
2022/09/18 07:12:10;;;;;;;8.70;2.50;;;11.00;99.90;;;;;;4940471;29;20388;-75
2022/09/18 07:14:35;;;;;;;7.55;1.77;;;11.00;99.90;;;;;;4915359;29;20036;-75
2022/09/18 07:17:02;;;;;;;10.43;1.92;;;11.00;99.90;;;;;;4937890;28;20109;-75
2022/09/18 07:19:27;;;;;;;11.95;2.00;;;11.10;99.90;;;;;;4946401;28;20070;-76
2022/09/18 07:21:53;;;;;;;8.00;1.98;;;11.10;99.90;;;;;;4932418;28;20485;-76
2022/09/18 07:24:18;;;;;;;11.30;2.10;;;11.10;99.90;;;;;;4933001;29;20035;-76
2022/09/18 07:26:44;;;;;;;10.93;1.90;;;11.10;99.90;;;;;;4939525;29;20035;-76
2022/09/18 07:29:09;;;;;;;10.90;2.15;;;11.10;99.90;;;;;;4935273;29;20058;-76
2022/09/18 07:31:35;;;;;;;10.52;2.08;;;11.10;99.90;;;;;;4919243;29;20161;-76
2022/09/18 07:34:01;;;;;;;10.38;2.35;;;11.10;99.90;;;;;;4935319;29;20036;-76
2022/09/18 07:36:26;;;;;;;12.60;2.10;;;11.10;99.90;;;;;;4934800;29;20149;-76
2022/09/18 07:38:52;;;;;;;9.73;2.00;;;11.10;99.90;;;;;;4933475;29;20058;-76
2022/09/18 07:41:18;;;;;;;11.05;2.05;;;11.10;99.90;;;;;;4925542;29;20126;-76
2022/09/18 07:43:44;;;;;;;14.77;2.30;;;11.10;99.90;;;;;;4917130;29;20474;-76
2022/09/18 07:46:10;;;;;;;9.07;1.80;;;11.10;99.90;;;;;;4923439;29;20401;-77
2022/09/18 07:48:36;;;;;;;8.40;1.60;;;11.10;99.90;;;;;;4939289;29;20039;-76
2022/09/18 07:51:03;;;;;;;11.98;2.03;;;11.20;99.90;;;;;;4939631;29;20572;-76
2022/09/18 07:53:28;;;;;;;9.15;2.20;;;11.20;99.90;;;;;;4926279;28;20065;-76
2022/09/18 07:55:56;;;;;;;12.45;2.15;;;11.30;99.90;;;;;;4920283;28;20484;-76
2022/09/18 07:58:22;;;;;;;11.10;2.35;;;11.30;99.90;;;;;;4931598;28;20085;-76
2022/09/18 08:00:49;;;;;;;12.38;2.17;;;11.30;99.90;;;;;;4922472;28;20047;-75
2022/09/18 08:03:16;;;;;;;9.63;1.75;;;11.30;99.90;;;;;;4935232;29;20047;-75
2022/09/18 08:05:41;;;;;;;11.43;1.95;;;11.40;99.90;;;;;;4928390;29;20047;-75
2022/09/18 08:08:11;;;;;;;8.35;1.50;;;11.30;99.90;;;;;;4915495;29;20035;-76
2022/09/18 08:10:38;;;;;;;6.88;1.27;;;11.40;99.90;;;;;;4932040;29;20126;-76
2022/09/18 08:13:05;;;;;;;7.20;1.33;;;11.30;99.90;;;;;;4938519;28;20054;-75
2022/09/18 08:15:33;;;;;;;7.25;1.40;;;11.30;99.90;;;;;;4937782;29;20043;-77
2022/09/18 08:17:59;;;;;;;5.88;1.25;;;11.20;99.90;;;;;;4939243;28;20038;-76
2022/09/18 08:20:24;;;;;;;6.80;1.50;;;11.20;99.90;;;;;;4947014;28;20485;-75
2022/09/18 08:22:50;;;;;;;7.32;1.30;;;11.20;99.90;;;;;;4933488;29;20050;-75
2022/09/18 08:25:16;;;;;;;4.82;1.10;;;11.10;99.90;;;;;;4936210;29;20042;-76
2022/09/18 08:27:42;;;;;;;5.00;1.10;;;11.10;99.90;;;;;;4927599;28;20062;-75
2022/09/18 08:30:10;;;;;;;5.80;1.30;;;11.10;99.90;;;;;;4949300;28;20125;-76
2022/09/18 08:32:36;;;;;;;5.40;1.38;;;11.10;99.90;;;;;;4935281;28;20484;-76
2022/09/18 08:35:03;;;;;;;8.75;1.40;;;11.10;99.90;;;;;;4931183;28;20074;-75
2022/09/18 08:37:29;;;;;;;7.70;1.70;;;11.20;99.90;;;;;;4929929;29;20186;-75
2022/09/18 08:39:55;;;;;;;4.32;1.00;;;11.20;99.90;;;;;;4928815;29;20051;-76
2022/09/18 08:42:41;;;;;;;6.43;1.35;;;11.20;99.90;;;;;;4931781;29;20046;-75
2022/09/18 08:45:37;;;;;;;7.50;1.50;;;11.10;99.90;;;;;;4939693;28;20097;-76
2022/09/18 08:48:15;;;;;;;6.38;1.30;;;11.10;99.90;;;;;;4912777;29;20031;-76
2022/09/18 08:50:46;;;;;;;5.22;0.85;;;11.10;99.90;;;;;;4916843;29;20059;-76
2022/09/18 08:53:31;;;;;;;2.00;0.60;;;11.10;99.90;;;;;;4911786;28;20051;-76
2022/09/18 08:55:58;;;;;;;6.78;1.17;;;11.10;99.90;;;;;;4928468;28;20039;-76
2022/09/18 08:58:38;;;;;;;4.90;1.10;;;11.10;99.90;;;;;;4957127;28;20050;-76
2022/09/18 09:01:12;;;;;;;4.88;1.23;;;11.10;99.90;;;;;;4957392;28;20043;-76
2022/09/18 09:03:53;;;;;;;4.68;0.90;;;11.10;99.90;;;;;;4921395;28;20054;-76
2022/09/18 09:06:34;;;;;;;6.15;1.10;;;11.10;99.90;;;;;;4925662;29;20067;-77
2022/09/18 09:09:17;;;;;;;4.88;1.00;;;11.10;99.90;;;;;;4967627;28;20453;-77
2022/09/18 09:11:58;;;;;;;4.13;0.80;;;11.10;99.90;;;;;;4932086;28;20957;-77
2022/09/18 09:14:46;;;;;;;7.00;1.40;;;11.10;99.90;;;;;;4948383;28;20120;-76
2022/09/18 09:17:15;;;;;;;4.20;1.10;;;11.10;99.90;;;;;;4944673;28;20046;-77
2022/09/18 09:19:53;;;;;;;7.05;1.23;;;11.10;99.90;;;;;;4939254;28;20118;-77
2022/09/18 09:22:28;;;;;;;5.90;1.23;;;11.10;99.90;;;;;;4936273;29;20397;-77
2022/09/18 09:25:06;;;;;;;5.22;1.40;;;11.00;99.90;;;;;;4940082;28;20045;-77
2022/09/18 09:27:36;;;;;;;6.57;1.40;;;11.10;99.90;;;;;;4948880;29;20035;-77
2022/09/18 09:30:17;;;;;;;6.53;1.35;;;11.10;99.90;;;;;;4929354;28;20121;-77
2022/09/18 09:33:17;;;;;;;7.32;1.20;;;11.20;99.90;;;;;;4912504;29;20048;-77
2022/09/18 09:36:02;;;;;;;7.05;1.20;;;11.20;99.90;;;;;;4916513;28;20047;-76
2022/09/18 09:38:38;;;;;;;6.07;1.15;;;11.20;99.90;;;;;;4949020;28;20437;-77
2022/09/18 09:41:24;;;;;;;4.18;1.20;;;11.20;99.90;;;;;;4942499;28;20031;-77
2022/09/18 09:44:14;;;;;;;7.43;1.70;;;11.20;99.90;;;;;;4943298;28;20035;-76
2022/09/18 09:46:59;;;;;;;6.65;1.40;;;11.20;99.90;;;;;;4947321;29;20039;-76
2022/09/18 09:49:56;;;;;;;8.55;1.50;;;11.20;99.90;;;;;;4940327;28;20057;-76
2022/09/18 09:52:27;;;;;;;7.65;1.63;;;11.20;99.90;;;;;;4920682;28;20408;-76
2022/09/18 09:55:14;;;;;;;7.53;1.70;;;11.20;99.90;;;;;;4949900;28;20537;-76
2022/09/18 09:57:47;;;;;;;7.53;2.17;;;11.30;99.90;;;;;;4956252;28;20043;-76
2022/09/18 10:00:18;;;;;;;7.72;1.65;;;11.30;99.90;;;;;;4947260;29;20046;-76
2022/09/18 10:03:09;;;;;;;9.52;2.20;;;11.40;99.90;;;;;;4947759;28;20054;-76
2022/09/18 10:05:47;;;;;;;7.20;1.90;;;11.50;99.90;;;;;;4929197;28;20121;-76
2022/09/18 10:08:23;;;;;;;10.02;1.92;;;11.60;99.90;;;;;;4939706;28;20042;-77
2022/09/18 10:10:56;;;;;;;6.78;1.70;;;11.70;99.90;;;;;;4943436;29;20046;-76
2022/09/18 10:13:32;;;;;;;;;;;11.70;99.90;;;;;;4926585;28;20038;-76
2022/09/18 10:16:07;;;;;;;10.80;1.98;;;11.70;99.90;;;;;;4924560;28;19924;-76
2022/09/18 10:18:43;;;;;;;6.88;1.45;;;11.80;99.90;;;;;;4956009;28;20085;-76
2022/09/18 10:21:18;;;;;;;10.57;1.80;;;11.80;99.90;;;;;;4951393;28;20098;-77
2022/09/18 10:24:07;;;;;;;6.72;2.00;;;11.80;99.90;;;;;;4942749;28;20122;-79
2022/09/18 10:26:40;;;;;;;7.78;1.42;;;11.80;99.90;;;;;;4939030;29;20039;-78
2022/09/18 10:29:08;;;;;;;9.05;1.75;;;11.80;99.90;;;;;;4936851;29;20031;-79
2022/09/18 10:31:54;;;;;;;9.10;1.60;;;11.80;99.90;;;;;;4936848;29;20557;-78
2022/09/18 10:34:38;;;;;;;8.80;1.90;;;11.80;99.90;;;;;;4931041;29;20435;-77
2022/09/18 10:37:04;;;;;;;8.65;1.90;;;11.80;99.90;;;;;;4912461;29;20137;-77
2022/09/18 10:39:33;;;;;;;9.65;1.80;;;11.80;99.90;;;;;;4954587;28;20049;-77
2022/09/18 10:42:04;;;;;;;7.82;1.60;;;11.80;99.90;;;;;;4939734;28;20070;-77
2022/09/18 10:44:34;;;;;;;11.10;2.03;;;11.80;99.90;;;;;;4939569;28;20041;-77
2022/09/18 10:47:07;;;;;;;9.75;1.67;;;11.90;99.90;;;;;;4943838;28;20041;-77
2022/09/18 10:49:57;;;;;;;11.38;2.17;;;11.90;99.90;;;;;;4944059;28;20066;-77
2022/09/18 10:52:35;;;;;;;9.32;2.13;;;11.90;99.90;;;;;;4938632;28;20054;-77
2022/09/18 10:55:04;;;;;;;7.32;2.20;;;11.90;99.90;;;;;;4940611;28;20053;-77
2022/09/18 10:57:30;;;;;;;12.40;1.70;;;11.90;99.90;;;;;;4955633;28;20255;-77
2022/09/18 10:59:55;;;;;;;9.95;1.77;;;11.90;99.90;;;;;;4949857;28;20038;-78
2022/09/18 11:02:25;;;;;;;12.13;1.85;;;11.90;99.90;;;;;;4966738;28;20082;-78
2022/09/18 11:04:52;;;;;;;12.57;2.20;;;11.80;99.90;;;;;;4920790;29;20050;-78
2022/09/18 11:07:18;;;;;;;12.02;2.03;;;11.80;99.90;;;;;;4920427;29;20035;-78
2022/09/18 11:09:45;;;;;;;8.77;1.80;;;11.80;99.90;;;;;;4920209;29;20054;-77
2022/09/18 11:12:23;;;;;;;6.13;1.90;;;11.80;99.90;;;;;;4945979;28;20600;-77
2022/09/18 11:15:06;;;;;;;10.70;1.90;;;11.70;99.90;;;;;;4938371;29;20494;-77
2022/09/18 11:17:37;;;;;;;11.57;1.70;;;11.70;99.90;;;;;;4934657;28;20043;-77
2022/09/18 11:20:05;;;;;;;9.68;1.88;;;11.70;99.90;;;;;;4953032;28;20396;-77
2022/09/18 11:22:43;;;;;;;8.57;1.60;;;11.70;99.90;;;;;;4928095;29;20121;-78
2022/09/18 11:25:22;;;;;;;10.00;1.70;;;11.80;99.90;;;;;;4951248;29;20046;-78
2022/09/18 11:27:54;;;;;;;10.68;1.80;;;11.80;99.90;;;;;;4939958;29;20494;-77
2022/09/18 11:30:28;;;;;;;7.97;1.55;;;11.70;99.90;;;;;;4923278;29;20035;-77
2022/09/18 11:33:03;;;;;;;7.32;1.70;;;11.80;99.90;;;;;;4950511;28;20026;-77
2022/09/18 11:35:31;;;;;;;9.00;1.55;;;11.80;99.90;;;;;;4931763;28;20042;-77
2022/09/18 11:38:06;;;;;;;8.13;1.27;;;11.90;99.90;;;;;;4947312;29;20095;-77
2022/09/18 11:40:43;;;;;;;9.75;1.90;;;11.90;99.90;;;;;;4917737;28;20046;-76
2022/09/18 11:43:25;;;;;;;9.27;1.85;;;11.90;99.90;;;;;;4950051;28;20523;-77
2022/09/18 11:46:09;;;;;;;9.02;1.60;;;11.90;99.90;;;;;;4949503;28;20047;-76
2022/09/18 11:48:50;;;;;;;7.40;1.20;;;12.00;99.90;;;;;;4943250;28;20058;-77
2022/09/18 11:51:25;;;;;;;9.40;2.20;;;12.00;99.90;;;;;;4933388;29;20122;-76
2022/09/18 11:54:00;;;;;;;6.72;1.80;;;12.00;99.90;;;;;;4951678;28;20047;-77
2022/09/18 11:56:41;;;;;;;9.48;2.58;;;12.10;99.90;;;;;;4953174;28;20042;-76
2022/09/18 11:59:22;;;;;;;11.70;2.50;;;12.20;99.90;;;;;;4914654;29;20564;-76
2022/09/18 12:01:55;;;;;;;8.90;2.40;;;12.20;99.90;;;;;;4939001;29;20502;-76
2022/09/18 12:04:35;;;;;;;9.57;1.90;;;12.30;99.90;;;;;;4920703;29;20449;-77
2022/09/18 12:07:33;;;;;;;9.55;2.40;;;12.40;99.90;;;;;;4929900;29;20558;-76
2022/09/18 12:10:31;;;;;;;7.28;2.17;;;12.50;99.90;;;;;;4938665;28;20117;-75
2022/09/18 12:13:22;;;;;;;8.55;1.88;;;12.50;99.90;;;;;;4948467;28;20090;-75
2022/09/18 12:15:57;;;;;;;8.52;2.05;;;12.50;99.90;;;;;;4932848;28;20075;-75
2022/09/18 12:18:34;;;;;;;6.28;1.58;;;12.60;99.90;;;;;;4943429;29;20035;-76
2022/09/18 12:21:08;;;;;;;11.18;2.22;;;12.60;99.90;;;;;;4949737;28;20043;-76
2022/09/18 12:23:34;;;;;;;13.85;1.80;;;12.60;99.90;;;;;;4934168;28;20039;-76
2022/09/18 12:26:15;;;;;;;8.18;1.85;;;12.60;99.90;;;;;;4947423;28;20045;-76
2022/09/18 12:28:56;;;;;;;9.50;1.80;;;12.70;99.90;;;;;;4953566;29;20051;-76
2022/09/18 12:31:36;;;;;;;9.10;1.50;;;12.70;99.90;;;;;;4929772;28;20043;-76
2022/09/18 12:34:34;;;;;;;8.07;1.98;;;12.70;99.90;;;;;;4924278;28;20085;-76
2022/09/18 12:37:17;;;;;;;7.32;1.60;;;12.80;99.90;;;;;;4933761;28;20053;-76
2022/09/18 12:39:59;;;;;;;9.13;1.50;;;12.80;99.90;;;;;;4950996;28;20043;-76
2022/09/18 12:42:50;;;;;;;6.32;1.42;;;12.80;99.90;;;;;;4934621;29;20047;-76
2022/09/18 12:45:31;;;;;;;19.30;2.13;;;12.80;99.90;;;;;;4952213;28;20421;-76
2022/09/18 12:48:39;;;;;;;12.48;2.10;;;12.80;99.90;;;;;;4957444;28;20065;-76
2022/09/18 12:51:36;;;;;;;10.05;1.77;;;12.80;99.90;;;;;;4929343;28;20065;-77
2022/09/18 12:54:23;;;;;;;6.53;1.70;;;12.70;99.90;;;;;;4937474;29;20039;-77
2022/09/18 12:57:23;;;;;;;7.95;1.60;;;12.60;99.90;;;;;;4944111;28;20047;-76
2022/09/18 13:00:12;;;;;;;10.63;1.77;;;12.50;99.90;;;;;;4941370;28;20090;-77
2022/09/18 13:02:51;;;;;;;11.50;1.58;;;12.60;99.90;;;;;;4924872;29;20576;-77
2022/09/18 13:05:19;;;;;;;13.90;2.55;;;12.60;99.90;;;;;;4921216;29;20446;-77
2022/09/18 13:07:51;;;;;;;12.57;2.38;;;12.60;99.90;;;;;;4945083;28;20522;-77
2022/09/18 13:10:37;;;;;;;16.50;2.60;;;12.60;99.90;;;;;;4927071;29;20494;-77